Time;durP1;ratioP1;P1;durP2;ratioP2;P2;SDS_P1;SDS_P2;PMS_P1;PMS_P2;Temp;Humidity;BMP_temperature;BMP_pressure;BME280_temperature;BME280_humidity;BME280_pressure;Samples;Min_cycle;Max_cycle;Signal;HPM_P1;HPM_P2
2023/03/27 00:01:41;;;;;;;1.87;1.77;;;;;;;;;;5093372;28;20204;-83
2023/03/27 00:04:10;;;;;;;1.50;1.40;;;;;;;;;;5093155;28;20197;-83
2023/03/27 00:06:47;;;;;;;1.33;1.30;;;;;;;;;;5092910;28;20221;-83
2023/03/27 00:09:17;;;;;;;2.53;2.07;;;;;;;;;;5093276;28;20272;-83
2023/03/27 00:11:46;;;;;;;1.47;1.40;;;;;;;;;;5093062;28;20224;-83
2023/03/27 00:14:16;;;;;;;2.53;1.33;;;;;;;;;;5093233;28;20209;-84
2023/03/27 00:16:45;;;;;;;1.13;1.10;;;;;;;;;;5092976;28;20240;-83
2023/03/27 00:19:14;;;;;;;1.17;1.07;;;;;;;;;;5093155;28;20238;-83
2023/03/27 00:21:43;;;;;;;1.30;1.30;;;;;;;;;;5093488;28;20239;-83
2023/03/27 00:24:12;;;;;;;1.47;1.47;;;;;;;;;;5092983;28;20232;-83
2023/03/27 00:26:41;;;;;;;1.80;1.63;;;;;;;;;;5093027;28;20207;-83
2023/03/27 00:29:12;;;;;;;1.03;1.03;;;;;;;;;;5092911;28;20243;-83
2023/03/27 00:31:42;;;;;;;1.27;1.17;;;;;;;;;;5092200;28;20243;-83
2023/03/27 00:34:11;;;;;;;1.00;1.00;;;;;;;;;;5092936;28;20204;-83
2023/03/27 00:36:39;;;;;;;1.30;1.30;;;;;;;;;;5092707;28;20219;-84
2023/03/27 00:39:09;;;;;;;0.90;0.90;;;;;;;;;;5092740;28;20201;-83
2023/03/27 00:41:37;;;;;;;1.20;1.20;;;;;;;;;;5092968;28;20384;-83
2023/03/27 00:44:21;;;;;;;1.60;1.50;;;;;;;;;;5092761;28;20227;-82
2023/03/27 00:46:51;;;;;;;0.90;0.90;;;;;;;;;;5092734;28;20317;-82
2023/03/27 00:49:19;;;;;;;9.57;8.57;;;;;;;;;;5092640;28;20204;-84
2023/03/27 00:51:48;;;;;;;1.63;1.07;;;;;;;;;;5092738;28;20220;-83
2023/03/27 00:54:20;;;;;;;0.90;0.90;;;;;;;;;;5092500;28;20291;-83
2023/03/27 00:56:49;;;;;;;1.33;1.33;;;;;;;;;;5093032;28;20200;-83
2023/03/27 00:59:19;;;;;;;9.83;2.03;;;;;;;;;;5092629;28;20197;-81
2023/03/27 01:01:48;;;;;;;1.03;1.00;;;;;;;;;;5092162;28;20284;-81
2023/03/27 01:04:20;;;;;;;1.30;1.30;;;;;;;;;;5092516;28;20247;-81
2023/03/27 01:06:50;;;;;;;0.90;0.90;;;;;;;;;;5092609;28;20356;-81
2023/03/27 01:09:19;;;;;;;0.80;0.80;;;;;;;;;;5092454;28;20288;-81
2023/03/27 01:11:56;;;;;;;0.90;0.90;;;;;;;;;;5092424;28;20227;-81
2023/03/27 01:14:28;;;;;;;0.80;0.80;;;;;;;;;;5092645;28;20196;-81
2023/03/27 01:17:07;;;;;;;0.80;0.80;;;;;;;;;;5092256;28;20204;-81
2023/03/27 01:19:50;;;;;;;2.43;2.33;;;;;;;;;;5094596;28;20213;-81
2023/03/27 01:22:34;;;;;;;0.90;0.90;;;;;;;;;;5096571;28;20232;-81
2023/03/27 01:25:22;;;;;;;1.00;1.00;;;;;;;;;;5096498;28;20260;-81
2023/03/27 01:28:07;;;;;;;0.90;0.90;;;;;;;;;;5096313;28;20189;-81
2023/03/27 01:30:38;;;;;;;0.90;0.90;;;;;;;;;;5094795;28;20246;-80
2023/03/27 01:33:16;;;;;;;0.90;0.90;;;;;;;;;;5096601;28;20236;-81
2023/03/27 01:36:04;;;;;;;0.90;0.90;;;;;;;;;;5096345;28;20226;-80
2023/03/27 01:38:51;;;;;;;0.90;0.90;;;;;;;;;;5095959;28;20298;-81
2023/03/27 01:41:25;;;;;;;1.10;1.10;;;;;;;;;;5096172;28;20197;-81
2023/03/27 01:43:57;;;;;;;0.90;0.90;;;;;;;;;;5095923;28;20279;-81
2023/03/27 01:46:27;;;;;;;1.10;1.10;;;;;;;;;;5096018;28;20219;-81
2023/03/27 01:48:57;;;;;;;1.27;1.27;;;;;;;;;;5096224;28;20209;-81
2023/03/27 01:51:28;;;;;;;1.90;1.17;;;;;;;;;;5095991;28;20271;-81
2023/03/27 01:53:58;;;;;;;1.70;1.63;;;;;;;;;;5096288;28;20219;-81
2023/03/27 01:56:31;;;;;;;1.23;1.13;;;;;;;;;;5095815;28;20205;-81
2023/03/27 01:59:02;;;;;;;1.10;1.10;;;;;;;;;;5095842;28;20246;-81
2023/03/27 02:01:34;;;;;;;3.30;1.43;;;;;;;;;;5095966;28;20210;-83
2023/03/27 02:04:03;;;;;;;1.40;1.30;;;;;;;;;;5095519;28;20208;-83
2023/03/27 02:06:33;;;;;;;1.53;1.40;;;;;;;;;;5095536;28;20284;-83
2023/03/27 02:09:04;;;;;;;1.20;1.20;;;;;;;;;;5095500;28;20301;-83
2023/03/27 02:11:35;;;;;;;1.07;1.07;;;;;;;;;;5095912;28;20303;-83
2023/03/27 02:14:06;;;;;;;1.87;1.73;;;;;;;;;;5095686;28;20207;-83
2023/03/27 02:16:36;;;;;;;1.10;1.10;;;;;;;;;;5095565;28;20199;-84
2023/03/27 02:19:08;;;;;;;0.90;0.90;;;;;;;;;;5095119;28;20200;-83
2023/03/27 02:21:36;;;;;;;1.67;1.57;;;;;;;;;;5095310;28;20201;-84
2023/03/27 02:24:05;;;;;;;3.23;1.60;;;;;;;;;;5095171;28;20196;-83
2023/03/27 02:26:35;;;;;;;1.97;1.77;;;;;;;;;;5095146;28;20254;-83
2023/03/27 02:29:16;;;;;;;1.30;1.20;;;;;;;;;;5094683;28;20228;-85
2023/03/27 02:31:52;;;;;;;1.23;1.00;;;;;;;;;;5094780;28;20220;-85
2023/03/27 02:34:49;;;;;;;1.00;1.00;;;;;;;;;;5094721;28;20216;-85
2023/03/27 02:37:21;;;;;;;0.90;0.90;;;;;;;;;;5094621;28;20323;-85
2023/03/27 02:39:55;;;;;;;0.90;0.90;;;;;;;;;;5094956;28;20207;-85
2023/03/27 02:42:30;;;;;;;0.90;0.90;;;;;;;;;;5094763;28;20221;-85
2023/03/27 02:45:03;;;;;;;0.90;0.90;;;;;;;;;;5094526;28;20507;-85
2023/03/27 02:47:33;;;;;;;0.90;0.90;;;;;;;;;;5094549;28;20215;-85
2023/03/27 02:50:04;;;;;;;0.90;0.90;;;;;;;;;;5094318;28;20207;-85
2023/03/27 02:52:35;;;;;;;0.90;0.90;;;;;;;;;;5094639;28;20250;-85
2023/03/27 02:55:06;;;;;;;0.90;0.90;;;;;;;;;;5094470;28;20245;-85
2023/03/27 02:57:38;;;;;;;0.90;0.90;;;;;;;;;;5093959;28;20199;-85
2023/03/27 03:00:17;;;;;;;0.90;0.90;;;;;;;;;;5093988;28;20231;-84
2023/03/27 03:02:47;;;;;;;0.80;0.80;;;;;;;;;;5094704;28;20322;-85
2023/03/27 03:05:19;;;;;;;0.80;0.80;;;;;;;;;;5094275;28;20219;-85
2023/03/27 03:07:48;;;;;;;0.80;0.80;;;;;;;;;;5094569;28;20219;-84
2023/03/27 03:10:17;;;;;;;0.80;0.80;;;;;;;;;;5093949;28;20193;-85
2023/03/27 03:12:47;;;;;;;0.80;0.80;;;;;;;;;;5094274;28;20437;-85
2023/03/27 03:15:17;;;;;;;0.90;0.90;;;;;;;;;;5093913;28;20203;-84
2023/03/27 03:17:45;;;;;;;0.90;0.90;;;;;;;;;;5094162;28;20302;-85
2023/03/27 03:20:15;;;;;;;0.90;0.90;;;;;;;;;;5094152;28;20218;-84
2023/03/27 03:22:44;;;;;;;0.80;0.80;;;;;;;;;;5093830;28;20208;-83
2023/03/27 03:25:13;;;;;;;0.90;0.90;;;;;;;;;;5093890;28;20201;-85
2023/03/27 03:27:42;;;;;;;0.80;0.80;;;;;;;;;;5093601;28;20203;-84
2023/03/27 03:30:13;;;;;;;0.90;0.90;;;;;;;;;;5093466;28;20232;-85
2023/03/27 03:32:46;;;;;;;0.80;0.80;;;;;;;;;;5093452;28;20280;-83
2023/03/27 03:35:14;;;;;;;0.90;0.90;;;;;;;;;;5093553;28;20197;-84
2023/03/27 03:37:49;;;;;;;0.80;0.80;;;;;;;;;;5093553;28;20228;-84
2023/03/27 03:40:19;;;;;;;0.90;0.90;;;;;;;;;;5093353;28;20230;-84
2023/03/27 03:42:48;;;;;;;0.90;0.90;;;;;;;;;;5092781;28;20201;-84
2023/03/27 03:45:18;;;;;;;0.90;0.90;;;;;;;;;;5093589;28;20281;-85
2023/03/27 03:47:47;;;;;;;0.90;0.90;;;;;;;;;;5093641;28;20322;-85
2023/03/27 03:50:15;;;;;;;0.90;0.90;;;;;;;;;;5093172;28;20188;-85
2023/03/27 03:52:45;;;;;;;0.90;0.90;;;;;;;;;;5093234;28;20276;-84
2023/03/27 03:55:15;;;;;;;0.90;0.90;;;;;;;;;;5092760;28;20287;-84
2023/03/27 03:57:46;;;;;;;0.90;0.90;;;;;;;;;;5092902;28;20214;-84
2023/03/27 04:00:16;;;;;;;0.90;0.90;;;;;;;;;;5093176;28;20281;-84
2023/03/27 04:02:45;;;;;;;0.80;0.80;;;;;;;;;;5093040;28;20251;-84
2023/03/27 04:05:14;;;;;;;0.90;0.90;;;;;;;;;;5092924;28;20240;-85
2023/03/27 04:07:44;;;;;;;0.90;0.90;;;;;;;;;;5093248;28;20416;-84
2023/03/27 04:10:13;;;;;;;0.90;0.90;;;;;;;;;;5093257;28;20207;-84
2023/03/27 04:12:41;;;;;;;0.90;0.90;;;;;;;;;;5093107;28;20237;-84
2023/03/27 04:15:10;;;;;;;0.90;0.90;;;;;;;;;;5092761;28;20231;-83
2023/03/27 04:17:39;;;;;;;0.90;0.90;;;;;;;;;;5092857;28;20227;-84
2023/03/27 04:20:09;;;;;;;0.90;0.90;;;;;;;;;;5092583;28;20249;-84
2023/03/27 04:22:38;;;;;;;0.90;0.90;;;;;;;;;;5092726;28;20291;-84
2023/03/27 04:25:07;;;;;;;0.80;0.80;;;;;;;;;;5092673;28;20242;-84
2023/03/27 04:27:36;;;;;;;0.80;0.80;;;;;;;;;;5092883;28;20311;-84
2023/03/27 04:30:07;;;;;;;0.90;0.90;;;;;;;;;;5092332;28;20243;-84
2023/03/27 04:32:35;;;;;;;0.90;0.90;;;;;;;;;;5092429;28;20223;-84
2023/03/27 04:35:04;;;;;;;0.80;0.80;;;;;;;;;;5093026;28;20269;-84
2023/03/27 04:37:34;;;;;;;0.90;0.90;;;;;;;;;;5092303;28;20260;-84
2023/03/27 04:40:05;;;;;;;0.90;0.90;;;;;;;;;;5092249;28;20269;-84
2023/03/27 04:42:34;;;;;;;0.90;0.90;;;;;;;;;;5092378;28;20227;-84
2023/03/27 04:45:03;;;;;;;0.90;0.90;;;;;;;;;;5092160;28;20212;-84
2023/03/27 04:47:31;;;;;;;0.80;0.80;;;;;;;;;;5092030;28;20203;-85
2023/03/27 04:49:59;;;;;;;0.90;0.90;;;;;;;;;;5092196;28;20256;-84
2023/03/27 04:52:28;;;;;;;0.80;0.80;;;;;;;;;;5091672;28;20223;-84
2023/03/27 04:54:59;;;;;;;0.80;0.80;;;;;;;;;;5091061;28;20199;-84
2023/03/27 04:57:29;;;;;;;0.90;0.90;;;;;;;;;;5092076;28;20197;-85
2023/03/27 04:59:58;;;;;;;0.80;0.80;;;;;;;;;;5092139;28;20204;-84
2023/03/27 05:02:27;;;;;;;0.80;0.80;;;;;;;;;;5091684;28;20285;-85
2023/03/27 05:04:57;;;;;;;0.80;0.80;;;;;;;;;;5092039;28;20210;-84
2023/03/27 05:07:27;;;;;;;0.80;0.80;;;;;;;;;;5091974;28;20188;-83
2023/03/27 05:09:56;;;;;;;0.90;0.90;;;;;;;;;;5092056;28;20235;-85
2023/03/27 05:12:26;;;;;;;0.90;0.90;;;;;;;;;;5091830;28;20372;-85
2023/03/27 05:14:55;;;;;;;0.83;0.83;;;;;;;;;;5091745;28;20223;-84
2023/03/27 05:17:24;;;;;;;0.83;0.83;;;;;;;;;;5092234;28;20273;-85
2023/03/27 05:19:53;;;;;;;0.80;0.80;;;;;;;;;;5091909;28;20197;-84
2023/03/27 05:22:21;;;;;;;0.80;0.80;;;;;;;;;;5091641;28;20220;-84
2023/03/27 05:24:50;;;;;;;0.80;0.80;;;;;;;;;;5092520;28;20250;-84
2023/03/27 05:27:19;;;;;;;0.80;0.80;;;;;;;;;;5091555;28;20226;-84
2023/03/27 05:29:49;;;;;;;0.80;0.80;;;;;;;;;;5091658;28;20232;-84
2023/03/27 05:32:17;;;;;;;0.80;0.80;;;;;;;;;;5091721;28;20243;-84
2023/03/27 05:34:49;;;;;;;0.80;0.80;;;;;;;;;;5092154;28;20196;-84
2023/03/27 05:37:18;;;;;;;0.80;0.80;;;;;;;;;;5091786;28;20227;-85
2023/03/27 05:39:46;;;;;;;0.80;0.80;;;;;;;;;;5091583;28;20203;-84
2023/03/27 05:42:14;;;;;;;0.80;0.80;;;;;;;;;;5091804;28;20300;-85
2023/03/27 05:44:43;;;;;;;0.80;0.80;;;;;;;;;;5091691;28;20284;-84
2023/03/27 05:47:14;;;;;;;0.80;0.80;;;;;;;;;;5091911;28;20200;-85
2023/03/27 05:49:42;;;;;;;0.80;0.80;;;;;;;;;;5091884;28;20207;-85
2023/03/27 05:52:11;;;;;;;0.80;0.80;;;;;;;;;;5091629;28;20292;-84
2023/03/27 05:54:39;;;;;;;0.80;0.80;;;;;;;;;;5091464;28;20304;-84
2023/03/27 05:57:08;;;;;;;0.70;0.70;;;;;;;;;;5091527;28;20230;-84
2023/03/27 05:59:36;;;;;;;0.80;0.80;;;;;;;;;;5091431;28;20209;-83
2023/03/27 06:02:05;;;;;;;0.80;0.80;;;;;;;;;;5091368;28;20247;-84
2023/03/27 06:04:34;;;;;;;0.80;0.80;;;;;;;;;;5092025;28;20203;-84
2023/03/27 06:07:03;;;;;;;0.80;0.80;;;;;;;;;;5095418;28;20220;-84
2023/03/27 06:09:31;;;;;;;0.80;0.80;;;;;;;;;;5095393;28;20196;-83
2023/03/27 06:12:00;;;;;;;0.80;0.80;;;;;;;;;;5095245;28;20200;-83
2023/03/27 06:14:28;;;;;;;0.70;0.70;;;;;;;;;;5095030;28;20247;-83
2023/03/27 06:16:56;;;;;;;0.80;0.80;;;;;;;;;;5095173;28;20190;-83
2023/03/27 06:19:25;;;;;;;0.80;0.80;;;;;;;;;;5095022;28;20246;-84
2023/03/27 06:21:55;;;;;;;0.80;0.80;;;;;;;;;;5095192;28;20243;-83
2023/03/27 06:24:23;;;;;;;0.80;0.80;;;;;;;;;;5095368;28;20250;-83
2023/03/27 06:26:51;;;;;;;0.80;0.80;;;;;;;;;;5095116;28;20224;-83
2023/03/27 06:29:20;;;;;;;0.90;0.90;;;;;;;;;;5095038;28;20260;-83
2023/03/27 06:31:48;;;;;;;0.87;0.87;;;;;;;;;;5095351;28;20285;-83
2023/03/27 06:34:17;;;;;;;0.90;0.90;;;;;;;;;;5094866;28;20213;-83
2023/03/27 06:36:45;;;;;;;0.80;0.80;;;;;;;;;;5095370;28;20285;-83
2023/03/27 06:39:16;;;;;;;0.80;0.80;;;;;;;;;;5095273;28;20236;-83
2023/03/27 06:41:45;;;;;;;0.80;0.80;;;;;;;;;;5094996;28;20196;-83
2023/03/27 06:44:13;;;;;;;0.90;0.90;;;;;;;;;;5094424;28;20219;-84
2023/03/27 06:46:42;;;;;;;0.90;0.90;;;;;;;;;;5094837;28;20193;-84
2023/03/27 06:49:13;;;;;;;0.80;0.80;;;;;;;;;;5094246;28;20295;-83
2023/03/27 06:51:41;;;;;;;0.90;0.90;;;;;;;;;;5094331;28;20231;-81
2023/03/27 06:54:11;;;;;;;0.90;0.90;;;;;;;;;;5094052;28;20223;-80
2023/03/27 06:56:43;;;;;;;0.80;0.80;;;;;;;;;;5094304;28;20200;-81
2023/03/27 06:59:12;;;;;;;0.90;0.90;;;;;;;;;;5094333;28;20205;-80
2023/03/27 07:01:40;;;;;;;0.90;0.90;;;;;;;;;;5094716;28;20205;-81
2023/03/27 07:04:09;;;;;;;0.80;0.80;;;;;;;;;;5094398;28;20214;-81
2023/03/27 07:06:37;;;;;;;0.90;0.90;;;;;;;;;;5094153;28;20213;-81
2023/03/27 07:09:07;;;;;;;0.90;0.90;;;;;;;;;;5094398;28;20254;-80
2023/03/27 07:11:35;;;;;;;0.90;0.90;;;;;;;;;;5094273;28;20240;-80
2023/03/27 07:14:05;;;;;;;0.90;0.90;;;;;;;;;;5094470;28;20242;-81
2023/03/27 07:16:33;;;;;;;0.87;0.87;;;;;;;;;;5093364;28;20208;-81
2023/03/27 07:19:02;;;;;;;0.80;0.80;;;;;;;;;;5093999;28;20205;-81
2023/03/27 07:21:31;;;;;;;0.80;0.80;;;;;;;;;;5094028;28;20200;-81
2023/03/27 07:24:00;;;;;;;0.80;0.80;;;;;;;;;;5094110;28;20189;-81
2023/03/27 07:26:28;;;;;;;0.90;0.90;;;;;;;;;;5094134;28;20201;-81
2023/03/27 07:28:59;;;;;;;0.90;0.90;;;;;;;;;;5094222;28;20240;-81
2023/03/27 07:31:29;;;;;;;0.90;0.90;;;;;;;;;;5093954;28;20201;-81
2023/03/27 07:34:17;;;;;;;0.90;0.90;;;;;;;;;;5093416;28;20217;-81
2023/03/27 07:36:46;;;;;;;0.80;0.80;;;;;;;;;;5093913;28;20231;-80
2023/03/27 07:39:15;;;;;;;0.90;0.90;;;;;;;;;;5093696;28;20208;-81
2023/03/27 07:41:43;;;;;;;0.87;0.87;;;;;;;;;;5093940;28;20230;-81
2023/03/27 07:44:11;;;;;;;0.80;0.80;;;;;;;;;;5093317;28;20185;-81
2023/03/27 07:46:44;;;;;;;0.80;0.80;;;;;;;;;;5093549;28;20197;-81
2023/03/27 07:49:13;;;;;;;0.90;0.90;;;;;;;;;;5093955;28;20198;-81
2023/03/27 07:51:41;;;;;;;0.90;0.90;;;;;;;;;;5093475;28;20205;-81
2023/03/27 07:54:12;;;;;;;0.87;0.87;;;;;;;;;;5093088;28;20213;-81
2023/03/27 07:56:40;;;;;;;0.83;0.83;;;;;;;;;;5093451;28;20279;-81
2023/03/27 07:59:10;;;;;;;0.80;0.80;;;;;;;;;;5093156;28;20196;-81
2023/03/27 08:01:40;;;;;;;0.80;0.80;;;;;;;;;;5093410;28;20287;-81
2023/03/27 08:04:10;;;;;;;0.80;0.80;;;;;;;;;;5092791;28;20241;-81
2023/03/27 08:06:39;;;;;;;0.80;0.80;;;;;;;;;;5093141;28;20209;-81
2023/03/27 08:09:08;;;;;;;0.80;0.80;;;;;;;;;;5093267;28;20208;-81
2023/03/27 08:11:37;;;;;;;0.80;0.80;;;;;;;;;;5093231;28;20300;-81
2023/03/27 08:14:06;;;;;;;0.90;0.90;;;;;;;;;;5093165;28;20253;-81
2023/03/27 08:16:34;;;;;;;4.13;1.27;;;;;;;;;;5092943;28;20290;-82
2023/03/27 08:19:05;;;;;;;1.83;1.40;;;;;;;;;;5093110;28;20201;-82
2023/03/27 08:21:35;;;;;;;10.97;2.30;;;;;;;;;;5092994;28;20239;-82
2023/03/27 08:24:04;;;;;;;3.80;1.90;;;;;;;;;;5093139;28;20202;-81
2023/03/27 08:26:32;;;;;;;3.20;1.93;;;;;;;;;;5093072;28;20225;-82
2023/03/27 08:29:01;;;;;;;0.80;0.80;;;;;;;;;;5092764;28;20293;-82
2023/03/27 08:31:30;;;;;;;0.80;0.80;;;;;;;;;;5092554;28;20195;-82
2023/03/27 08:33:58;;;;;;;0.80;0.80;;;;;;;;;;5092978;28;20193;-81
2023/03/27 08:36:27;;;;;;;0.90;0.90;;;;;;;;;;5092329;28;20279;-81
2023/03/27 08:39:01;;;;;;;0.90;0.90;;;;;;;;;;5092069;28;20201;-81
2023/03/27 08:41:31;;;;;;;0.80;0.80;;;;;;;;;;5092762;28;20197;-81
2023/03/27 08:44:02;;;;;;;0.80;0.80;;;;;;;;;;5092553;28;20306;-81
2023/03/27 08:46:34;;;;;;;0.80;0.80;;;;;;;;;;5092370;28;20221;-81
2023/03/27 08:49:06;;;;;;;0.80;0.80;;;;;;;;;;5092684;28;20204;-81
2023/03/27 08:51:38;;;;;;;0.80;0.80;;;;;;;;;;5092736;28;20311;-81
2023/03/27 08:54:09;;;;;;;0.80;0.80;;;;;;;;;;5092232;28;20291;-81
2023/03/27 08:56:40;;;;;;;0.97;0.97;;;;;;;;;;5092448;28;20205;-81
2023/03/27 08:59:12;;;;;;;0.80;0.80;;;;;;;;;;5092638;28;20207;-81
2023/03/27 09:01:47;;;;;;;0.80;0.80;;;;;;;;;;5092425;28;20195;-81
2023/03/27 09:04:20;;;;;;;0.80;0.80;;;;;;;;;;5092439;28;20258;-81
2023/03/27 09:06:53;;;;;;;0.90;0.90;;;;;;;;;;5092496;28;20213;-81
2023/03/27 09:09:29;;;;;;;0.80;0.80;;;;;;;;;;5092464;28;20196;-81
2023/03/27 09:12:03;;;;;;;0.80;0.80;;;;;;;;;;5092230;28;20216;-82
2023/03/27 09:14:33;;;;;;;0.70;0.70;;;;;;;;;;5092338;28;20241;-81
2023/03/27 09:17:05;;;;;;;1.20;1.20;;;;;;;;;;5092282;28;20200;-81
2023/03/27 09:19:37;;;;;;;0.80;0.80;;;;;;;;;;5092148;28;20233;-84
2023/03/27 09:22:08;;;;;;;0.80;0.80;;;;;;;;;;5091964;28;20204;-84
2023/03/27 09:24:41;;;;;;;0.80;0.80;;;;;;;;;;5092423;28;20229;-85
2023/03/27 09:27:17;;;;;;;0.80;0.80;;;;;;;;;;5095610;28;20232;-85
2023/03/27 09:29:50;;;;;;;0.80;0.80;;;;;;;;;;5094210;28;20248;-85
2023/03/27 09:32:33;;;;;;;0.80;0.80;;;;;;;;;;5098315;28;20320;-86
2023/03/27 09:35:03;;;;;;;0.80;0.80;;;;;;;;;;5091315;28;20222;-84
2023/03/27 09:37:31;;;;;;;0.80;0.80;;;;;;;;;;5094163;28;20238;-83
2023/03/27 09:40:06;;;;;;;0.80;0.80;;;;;;;;;;5100365;28;20211;-84
2023/03/27 09:42:37;;;;;;;0.80;0.80;;;;;;;;;;5108607;28;20261;-84
2023/03/27 09:45:07;;;;;;;0.80;0.80;;;;;;;;;;5100531;28;20289;-85
2023/03/27 09:47:37;;;;;;;0.80;0.80;;;;;;;;;;5100248;28;20247;-86
2023/03/27 09:50:24;;;;;;;5.90;5.70;;;;;;;;;;5102608;28;20200;-85
2023/03/27 09:53:07;;;;;;;0.80;0.80;;;;;;;;;;5098646;28;20201;-85
2023/03/27 09:55:45;;;;;;;0.80;0.80;;;;;;;;;;5096478;28;20224;-84
2023/03/27 09:58:15;;;;;;;0.80;0.80;;;;;;;;;;5101942;28;20204;-83
2023/03/27 10:00:45;;;;;;;0.80;0.80;;;;;;;;;;5101746;28;20235;-85
2023/03/27 10:03:15;;;;;;;0.80;0.80;;;;;;;;;;5103718;28;20208;-84
2023/03/27 10:05:45;;;;;;;0.80;0.80;;;;;;;;;;5102016;28;20229;-84
2023/03/27 10:08:31;;;;;;;0.80;0.80;;;;;;;;;;5103871;28;20205;-84
2023/03/27 10:11:00;;;;;;;0.80;0.80;;;;;;;;;;5101846;28;20269;-84
2023/03/27 10:13:29;;;;;;;0.70;0.70;;;;;;;;;;5097399;28;20208;-84
2023/03/27 10:15:59;;;;;;;0.70;0.70;;;;;;;;;;5104828;28;20255;-84
2023/03/27 10:18:30;;;;;;;0.80;0.80;;;;;;;;;;5095538;28;20315;-84
2023/03/27 10:21:00;;;;;;;0.80;0.80;;;;;;;;;;5097867;28;20185;-84
2023/03/27 10:23:29;;;;;;;0.80;0.80;;;;;;;;;;5104209;28;20222;-84
2023/03/27 10:26:00;;;;;;;0.80;0.80;;;;;;;;;;5096410;28;20184;-84
2023/03/27 10:28:34;;;;;;;0.80;0.80;;;;;;;;;;5097891;28;20258;-84
2023/03/27 10:31:03;;;;;;;0.80;0.80;;;;;;;;;;5100284;28;20200;-84
2023/03/27 10:33:32;;;;;;;0.80;0.80;;;;;;;;;;5100878;28;20209;-81
2023/03/27 10:36:01;;;;;;;0.70;0.70;;;;;;;;;;5098810;28;20267;-81
2023/03/27 10:38:30;;;;;;;0.80;0.80;;;;;;;;;;5098595;28;20247;-81
2023/03/27 10:40:59;;;;;;;0.80;0.80;;;;;;;;;;5100033;28;20231;-81
2023/03/27 10:43:29;;;;;;;0.80;0.80;;;;;;;;;;5103466;28;20188;-83
2023/03/27 10:46:03;;;;;;;0.80;0.80;;;;;;;;;;5100843;28;20272;-86
2023/03/27 10:48:37;;;;;;;0.80;0.80;;;;;;;;;;5112024;28;20203;-86
2023/03/27 10:51:07;;;;;;;0.80;0.80;;;;;;;;;;5115685;28;20257;-86
2023/03/27 10:53:41;;;;;;;0.80;0.80;;;;;;;;;;5114732;28;20231;-85
2023/03/27 10:56:14;;;;;;;0.80;0.80;;;;;;;;;;5115655;28;20217;-85
2023/03/27 10:58:44;;;;;;;0.80;0.80;;;;;;;;;;5116170;28;20250;-86
2023/03/27 11:01:18;;;;;;;9.77;2.97;;;;;;;;;;5116029;28;20206;-86
2023/03/27 11:03:49;;;;;;;4.27;1.70;;;;;;;;;;5117052;28;20295;-85
2023/03/27 11:06:20;;;;;;;8.00;2.23;;;;;;;;;;5116438;28;20229;-86
2023/03/27 11:08:54;;;;;;;4.33;2.07;;;;;;;;;;5116685;28;20197;-86
2023/03/27 11:11:26;;;;;;;5.33;2.13;;;;;;;;;;5122502;28;20267;-85
2023/03/27 11:13:55;;;;;;;9.93;2.50;;;;;;;;;;5114432;28;20333;-86
2023/03/27 11:16:27;;;;;;;4.43;2.23;;;;;;;;;;5114370;28;20239;-86
2023/03/27 11:18:58;;;;;;;2.20;1.70;;;;;;;;;;5114761;28;20199;-86
2023/03/27 11:21:30;;;;;;;3.57;2.97;;;;;;;;;;5114421;28;20223;-86
2023/03/27 11:24:00;;;;;;;5.97;2.00;;;;;;;;;;5114310;28;20201;-86
2023/03/27 11:26:33;;;;;;;1.97;1.87;;;;;;;;;;5113975;28;20184;-85
2023/03/27 11:29:04;;;;;;;3.17;1.50;;;;;;;;;;5113852;28;20242;-84
2023/03/27 11:31:38;;;;;;;6.87;2.33;;;;;;;;;;5114570;28;20196;-86
2023/03/27 11:34:10;;;;;;;4.80;1.60;;;;;;;;;;5114178;28;20234;-84
2023/03/27 11:36:43;;;;;;;3.63;1.90;;;;;;;;;;5114382;28;20277;-85
2023/03/27 11:39:15;;;;;;;2.23;2.00;;;;;;;;;;5114606;28;20193;-86
2023/03/27 11:41:44;;;;;;;3.70;1.77;;;;;;;;;;5114325;28;20245;-88
2023/03/27 11:44:13;;;;;;;2.27;2.03;;;;;;;;;;5114453;28;20478;-86
2023/03/27 11:46:51;;;;;;;1.37;1.27;;;;;;;;;;5114623;28;20192;-85
2023/03/27 11:49:35;;;;;;;1.47;1.37;;;;;;;;;;5114149;28;20227;-86
2023/03/27 11:52:08;;;;;;;3.80;3.47;;;;;;;;;;5114270;28;20291;-86
2023/03/27 11:54:43;;;;;;;4.33;1.60;;;;;;;;;;5114354;28;20199;-86
2023/03/27 11:57:16;;;;;;;3.30;1.40;;;;;;;;;;5114171;28;20211;-85
2023/03/27 11:59:56;;;;;;;4.43;2.43;;;;;;;;;;5114176;28;20204;-86
2023/03/27 12:02:39;;;;;;;5.63;2.73;;;;;;;;;;5113191;28;20234;-86
2023/03/27 12:05:18;;;;;;;2.60;2.40;;;;;;;;;;5113038;28;20204;-86
2023/03/27 12:07:52;;;;;;;4.20;2.63;;;;;;;;;;5114293;28;20196;-86
2023/03/27 12:10:31;;;;;;;6.07;4.50;;;;;;;;;;5114084;28;20203;-86
2023/03/27 12:13:15;;;;;;;8.23;2.07;;;;;;;;;;5114550;28;20297;-86
2023/03/27 12:15:57;;;;;;;7.70;1.90;;;;;;;;;;5102880;28;20343;-86
2023/03/27 12:18:33;;;;;;;1.27;1.27;;;;;;;;;;5114937;28;20192;-86
2023/03/27 12:21:28;;;;;;;2.10;1.47;;;;;;;;;;5116595;28;20192;-86
2023/03/27 12:24:04;;;;;;;5.10;1.93;;;;;;;;;;5113130;28;20208;-86
2023/03/27 12:26:47;;;;;;;6.60;2.07;;;;;;;;;;5116219;28;20205;-86
2023/03/27 12:29:24;;;;;;;7.37;1.90;;;;;;;;;;5116696;28;20233;-86
2023/03/27 12:32:00;;;;;;;4.20;1.17;;;;;;;;;;5118119;28;20249;-86
2023/03/27 12:34:38;;;;;;;12.70;3.63;;;;;;;;;;5117172;28;20256;-87
2023/03/27 12:37:11;;;;;;;4.87;1.90;;;;;;;;;;5119235;28;20239;-86
2023/03/27 12:39:49;;;;;;;5.43;2.17;;;;;;;;;;5117791;28;20197;-86
2023/03/27 12:42:34;;;;;;;2.97;1.30;;;;;;;;;;5116358;28;20197;-87
2023/03/27 12:45:15;;;;;;;4.10;2.27;;;;;;;;;;5114319;28;20207;-85
2023/03/27 12:47:45;;;;;;;2.83;1.57;;;;;;;;;;5114910;28;20498;-87
2023/03/27 12:50:19;;;;;;;3.80;1.70;;;;;;;;;;5114936;28;20212;-86
2023/03/27 12:52:48;;;;;;;1.33;1.30;;;;;;;;;;5114242;28;20203;-87
2023/03/27 12:55:34;;;;;;;2.90;1.50;;;;;;;;;;5113646;28;20228;-86
2023/03/27 12:58:03;;;;;;;2.53;1.77;;;;;;;;;;5113336;28;20219;-87
2023/03/27 13:00:33;;;;;;;2.70;1.60;;;;;;;;;;5113082;28;20258;-87
2023/03/27 13:03:24;;;;;;;7.00;2.43;;;;;;;;;;5112919;28;20256;-87
2023/03/27 13:06:06;;;;;;;3.80;1.73;;;;;;;;;;5113213;28;20217;-86
2023/03/27 13:08:41;;;;;;;3.70;1.83;;;;;;;;;;5113158;28;20220;-87
2023/03/27 13:11:17;;;;;;;1.40;1.30;;;;;;;;;;5112815;28;20257;-87
2023/03/27 13:14:15;;;;;;;6.77;2.27;;;;;;;;;;5113139;28;20201;-83
2023/03/27 13:16:51;;;;;;;2.33;1.03;;;;;;;;;;5053585;28;20226;-86
2023/03/27 13:19:25;;;;;;;2.97;1.90;;;;;;;;;;5106806;28;20201;-86
2023/03/27 13:22:02;;;;;;;5.63;1.50;;;;;;;;;;5117362;28;20230;-87
2023/03/27 13:24:37;;;;;;;3.97;1.67;;;;;;;;;;5117481;28;20199;-86
2023/03/27 13:27:15;;;;;;;2.40;1.37;;;;;;;;;;5117248;28;20264;-86
2023/03/27 13:29:48;;;;;;;4.23;1.90;;;;;;;;;;5117096;28;20227;-87
2023/03/27 13:32:30;;;;;;;2.60;1.37;;;;;;;;;;5116798;28;20257;-82
2023/03/27 13:35:07;;;;;;;11.33;1.50;;;;;;;;;;5117083;28;20211;-82
2023/03/27 13:37:47;;;;;;;5.50;2.23;;;;;;;;;;5116581;28;20212;-81
2023/03/27 13:40:27;;;;;;;1.53;0.90;;;;;;;;;;5116778;28;20208;-81
2023/03/27 13:43:01;;;;;;;1.90;1.40;;;;;;;;;;5116804;28;20212;-81
2023/03/27 13:45:33;;;;;;;4.20;2.07;;;;;;;;;;5116616;27;20201;-81
2023/03/27 13:48:20;;;;;;;4.40;1.37;;;;;;;;;;5116517;28;20206;-81
2023/03/27 13:51:06;;;;;;;3.13;1.67;;;;;;;;;;5076121;28;20201;-82
2023/03/27 13:53:43;;;;;;;2.50;1.57;;;;;;;;;;5116299;28;20202;-82
2023/03/27 13:56:26;;;;;;;7.73;1.73;;;;;;;;;;5116220;28;20291;-82
2023/03/27 13:59:07;;;;;;;3.50;1.80;;;;;;;;;;5115968;28;20277;-82
2023/03/27 14:01:39;;;;;;;7.50;2.10;;;;;;;;;;5116298;28;20247;-82
2023/03/27 14:04:13;;;;;;;2.30;1.20;;;;;;;;;;5116645;28;20236;-82
2023/03/27 14:07:03;;;;;;;2.03;1.93;;;;;;;;;;5116100;28;20231;-82
2023/03/27 14:09:38;;;;;;;4.30;2.07;;;;;;;;;;5116322;28;20201;-81
2023/03/27 14:12:11;;;;;;;3.23;2.20;;;;;;;;;;5115818;28;20201;-82
2023/03/27 14:17:49;;;;;;;4.13;1.83;;;;;;;;;;5130299;27;20533;-82
2023/03/27 14:20:27;;;;;;;5.87;2.10;;;;;;;;;;5130178;28;20196;-82
2023/03/27 14:22:57;;;;;;;3.27;1.60;;;;;;;;;;5131005;27;20204;-82
2023/03/27 14:25:30;;;;;;;2.63;1.63;;;;;;;;;;5130328;28;20203;-83
2023/03/27 14:28:00;;;;;;;6.03;1.50;;;;;;;;;;5129932;28;20196;-82
2023/03/27 14:30:30;;;;;;;3.47;1.77;;;;;;;;;;5130390;28;20240;-82
2023/03/27 14:33:05;;;;;;;7.33;2.10;;;;;;;;;;5130172;28;20198;-82
2023/03/27 14:35:35;;;;;;;4.40;2.40;;;;;;;;;;5129953;28;20224;-82
2023/03/27 14:38:06;;;;;;;4.00;1.70;;;;;;;;;;5130233;28;20300;-83
2023/03/27 14:40:35;;;;;;;2.03;1.70;;;;;;;;;;5130395;28;20204;-82
2023/03/27 14:43:06;;;;;;;2.77;1.50;;;;;;;;;;5130433;28;20319;-82
2023/03/27 14:45:35;;;;;;;7.20;2.47;;;;;;;;;;5129955;28;20204;-82
2023/03/27 14:48:07;;;;;;;5.60;2.17;;;;;;;;;;5130447;27;20211;-82
2023/03/27 14:50:39;;;;;;;2.67;1.63;;;;;;;;;;5129927;28;20202;-82
2023/03/27 14:53:09;;;;;;;2.17;1.47;;;;;;;;;;5130251;28;20205;-82
2023/03/27 14:55:41;;;;;;;4.10;1.73;;;;;;;;;;5129728;28;20194;-82
2023/03/27 14:58:12;;;;;;;7.07;1.73;;;;;;;;;;5129583;28;20207;-82
2023/03/27 15:00:41;;;;;;;1.23;1.20;;;;;;;;;;5130229;28;20216;-82
2023/03/27 15:03:14;;;;;;;2.57;1.70;;;;;;;;;;5129898;28;20249;-82
2023/03/27 15:05:56;;;;;;;3.33;1.83;;;;;;;;;;5129805;27;20215;-82
2023/03/27 15:08:27;;;;;;;5.50;1.87;;;;;;;;;;5129542;27;20209;-82
2023/03/27 15:10:56;;;;;;;4.57;1.57;;;;;;;;;;5129507;27;20260;-83
2023/03/27 15:13:25;;;;;;;4.03;1.60;;;;;;;;;;5129741;27;20202;-83
2023/03/27 15:15:55;;;;;;;5.93;1.93;;;;;;;;;;5129436;27;20239;-82